CheckWX is a tool to help pilots better visualize weather data.  It is not intended as a substitute for an official pre-flight weather briefing.

12:44:02 UTC

KSUX METAR
Sioux Gateway / Col Bud Day Field Airport
Sioux City, Iowa, USA
Current

52 mins ago

KSUX 161152Z 29003KT 10SM CLR 17/14 A2987 RMK AO2 SLP109 VIS NE-E 5SM FG T01670144 10194 20139 53022
Observed
Jun-16 @ 11:52 UTC
Wind
  • 290° at 3 KTS
Visibility
10 SM
Flight Rules
VFR
Cloud Levels
  • Clear skies
Temperature
17°C / 63°F
Dewpoint
14°C / 57°F
Humidity
83%
Altimeter
29.87" Hg
Pressure
1011.52 hPa
Previous

2 hours ago

KSUX 161052Z 29004KT 10SM CLR 14/13 A2981 RMK AO2 PRESRR SLP089 T01390133
Observed
Jun-16 @ 10:52 UTC
Wind
  • 290° at 4 KTS
Visibility
10 SM
Flight Rules
VFR
Cloud Levels
  • Clear skies
Temperature
14°C / 57°F
Dewpoint
13°C / 55°F
Humidity
94%
Altimeter
29.81" Hg
Pressure
1009.52 hPa
Previous

3 hours ago

KSUX 160952Z AUTO 33004KT 10SM CLR 15/13 A2980 RMK AO2 SLP085 T01500133
Observed
Jun-16 @ 09:52 UTC
Wind
  • 330° at 4 KTS
Visibility
10 SM
Flight Rules
VFR
Cloud Levels
  • Clear skies
Temperature
15°C / 59°F
Dewpoint
13°C / 55°F
Humidity
88%
Altimeter
29.8" Hg
Pressure
1009.12 hPa